sensor_id;sensor_type;location;lat;lon;timestamp;temperature;humidity
11961;DHT22;6040;49.358;11.140;2023-12-14T00:00:50;6.60;99.90
11961;DHT22;6040;49.358;11.140;2023-12-14T00:03:18;5.50;99.90
11961;DHT22;6040;49.358;11.140;2023-12-14T00:05:44;5.40;99.90
11961;DHT22;6040;49.358;11.140;2023-12-14T00:08:11;5.50;99.90
11961;DHT22;6040;49.358;11.140;2023-12-14T00:10:38;5.50;99.90
11961;DHT22;6040;49.358;11.140;2023-12-14T00:13:05;5.40;99.90
11961;DHT22;6040;49.358;11.140;2023-12-14T00:15:33;5.50;99.90
11961;DHT22;6040;49.358;11.140;2023-12-14T00:18:00;5.50;99.90
11961;DHT22;6040;49.358;11.140;2023-12-14T00:20:28;6.80;99.90
11961;DHT22;6040;49.358;11.140;2023-12-14T00:22:54;5.50;99.90
11961;DHT22;6040;49.358;11.140;2023-12-14T00:25:21;5.50;99.90
11961;DHT22;6040;49.358;11.140;2023-12-14T00:27:48;6.20;99.90
11961;DHT22;6040;49.358;11.140;2023-12-14T00:30:15;7.30;99.90
11961;DHT22;6040;49.358;11.140;2023-12-14T00:32:42;5.50;99.90
11961;DHT22;6040;49.358;11.140;2023-12-14T00:35:09;6.30;99.90
11961;DHT22;6040;49.358;11.140;2023-12-14T00:37:37;6.60;99.90
11961;DHT22;6040;49.358;11.140;2023-12-14T00:40:04;6.00;99.90
11961;DHT22;6040;49.358;11.140;2023-12-14T00:42:31;5.40;99.90
11961;DHT22;6040;49.358;11.140;2023-12-14T00:44:58;5.50;99.90
11961;DHT22;6040;49.358;11.140;2023-12-14T00:47:25;5.50;99.90
11961;DHT22;6040;49.358;11.140;2023-12-14T00:49:52;5.50;99.90
11961;DHT22;6040;49.358;11.140;2023-12-14T00:52:19;5.50;99.90
11961;DHT22;6040;49.358;11.140;2023-12-14T00:54:47;5.50;99.90
11961;DHT22;6040;49.358;11.140;2023-12-14T00:57:14;5.50;99.90
11961;DHT22;6040;49.358;11.140;2023-12-14T00:59:41;5.50;99.90
11961;DHT22;6040;49.358;11.140;2023-12-14T01:02:08;5.50;99.90
11961;DHT22;6040;49.358;11.140;2023-12-14T01:04:35;5.50;99.90
11961;DHT22;6040;49.358;11.140;2023-12-14T01:07:02;5.50;99.90
11961;DHT22;6040;49.358;11.140;2023-12-14T01:09:29;5.50;99.90
11961;DHT22;6040;49.358;11.140;2023-12-14T01:11:58;5.60;99.90
11961;DHT22;6040;49.358;11.140;2023-12-14T01:14:24;5.60;99.90
11961;DHT22;6040;49.358;11.140;2023-12-14T01:16:51;5.50;99.90
11961;DHT22;6040;49.358;11.140;2023-12-14T01:19:18;5.60;99.90
11961;DHT22;6040;49.358;11.140;2023-12-14T01:21:45;5.60;99.90
11961;DHT22;6040;49.358;11.140;2023-12-14T01:24:11;5.60;99.90
11961;DHT22;6040;49.358;11.140;2023-12-14T01:26:38;5.60;99.90
11961;DHT22;6040;49.358;11.140;2023-12-14T01:29:06;5.60;99.90
11961;DHT22;6040;49.358;11.140;2023-12-14T01:31:34;7.40;99.90
11961;DHT22;6040;49.358;11.140;2023-12-14T01:34:00;5.60;99.90
11961;DHT22;6040;49.358;11.140;2023-12-14T01:36:27;5.60;99.90
11961;DHT22;6040;49.358;11.140;2023-12-14T01:38:54;5.60;99.90
11961;DHT22;6040;49.358;11.140;2023-12-14T01:41:21;6.70;99.90
11961;DHT22;6040;49.358;11.140;2023-12-14T01:43:48;5.60;99.90
11961;DHT22;6040;49.358;11.140;2023-12-14T01:46:16;5.60;99.90
11961;DHT22;6040;49.358;11.140;2023-12-14T01:48:43;5.60;99.90
11961;DHT22;6040;49.358;11.140;2023-12-14T01:51:09;5.60;99.90
11961;DHT22;6040;49.358;11.140;2023-12-14T01:53:36;5.50;99.90
11961;DHT22;6040;49.358;11.140;2023-12-14T01:56:04;5.50;99.90
11961;DHT22;6040;49.358;11.140;2023-12-14T01:58:30;5.50;99.90
11961;DHT22;6040;49.358;11.140;2023-12-14T02:01:05;5.40;99.90
11961;DHT22;6040;49.358;11.140;2023-12-14T02:03:35;5.40;99.90
11961;DHT22;6040;49.358;11.140;2023-12-14T02:06:02;5.40;99.90
11961;DHT22;6040;49.358;11.140;2023-12-14T02:08:29;5.40;99.90
11961;DHT22;6040;49.358;11.140;2023-12-14T02:10:56;6.90;99.90
11961;DHT22;6040;49.358;11.140;2023-12-14T02:13:23;3.20;99.90
11961;DHT22;6040;49.358;11.140;2023-12-14T02:15:51;5.90;99.90
11961;DHT22;6040;49.358;11.140;2023-12-14T02:18:19;5.50;99.90
11961;DHT22;6040;49.358;11.140;2023-12-14T02:20:47;5.50;99.90
11961;DHT22;6040;49.358;11.140;2023-12-14T02:23:15;5.50;99.90
11961;DHT22;6040;49.358;11.140;2023-12-14T02:25:43;5.50;99.90
11961;DHT22;6040;49.358;11.140;2023-12-14T02:28:10;5.50;99.90
11961;DHT22;6040;49.358;11.140;2023-12-14T02:30:37;6.90;99.90
11961;DHT22;6040;49.358;11.140;2023-12-14T02:33:03;5.50;99.90
11961;DHT22;6040;49.358;11.140;2023-12-14T02:35:30;5.50;99.90
11961;DHT22;6040;49.358;11.140;2023-12-14T02:37:57;5.60;99.90
11961;DHT22;6040;49.358;11.140;2023-12-14T02:40:25;5.50;99.90
11961;DHT22;6040;49.358;11.140;2023-12-14T02:42:52;5.60;99.90
11961;DHT22;6040;49.358;11.140;2023-12-14T02:45:19;5.60;99.90
11961;DHT22;6040;49.358;11.140;2023-12-14T02:47:45;5.60;99.90
11961;DHT22;6040;49.358;11.140;2023-12-14T02:50:14;5.60;99.90
11961;DHT22;6040;49.358;11.140;2023-12-14T02:52:40;5.60;99.90
11961;DHT22;6040;49.358;11.140;2023-12-14T02:55:07;5.60;99.90
11961;DHT22;6040;49.358;11.140;2023-12-14T02:57:36;7.70;99.90
11961;DHT22;6040;49.358;11.140;2023-12-14T03:00:03;5.60;99.90
11961;DHT22;6040;49.358;11.140;2023-12-14T03:02:30;5.60;99.90
11961;DHT22;6040;49.358;11.140;2023-12-14T03:04:57;5.60;99.90
11961;DHT22;6040;49.358;11.140;2023-12-14T03:07:24;5.60;99.90
11961;DHT22;6040;49.358;11.140;2023-12-14T03:09:51;5.50;99.90
11961;DHT22;6040;49.358;11.140;2023-12-14T03:12:18;5.60;99.90
11961;DHT22;6040;49.358;11.140;2023-12-14T03:14:46;5.50;99.90
11961;DHT22;6040;49.358;11.140;2023-12-14T03:17:12;5.50;99.90
11961;DHT22;6040;49.358;11.140;2023-12-14T03:19:40;5.40;99.90
11961;DHT22;6040;49.358;11.140;2023-12-14T03:22:07;5.50;99.90
11961;DHT22;6040;49.358;11.140;2023-12-14T03:24:35;5.50;99.90
11961;DHT22;6040;49.358;11.140;2023-12-14T03:27:01;5.50;99.90
11961;DHT22;6040;49.358;11.140;2023-12-14T03:29:28;5.50;99.90
11961;DHT22;6040;49.358;11.140;2023-12-14T03:31:57;5.60;99.90
11961;DHT22;6040;49.358;11.140;2023-12-14T03:34:24;5.60;99.90
11961;DHT22;6040;49.358;11.140;2023-12-14T03:36:51;5.50;99.90
11961;DHT22;6040;49.358;11.140;2023-12-14T03:39:18;5.60;99.90
11961;DHT22;6040;49.358;11.140;2023-12-14T03:41:45;5.60;99.90
11961;DHT22;6040;49.358;11.140;2023-12-14T03:44:12;5.60;99.90
11961;DHT22;6040;49.358;11.140;2023-12-14T03:46:39;5.60;99.90
11961;DHT22;6040;49.358;11.140;2023-12-14T03:49:07;5.60;99.90
11961;DHT22;6040;49.358;11.140;2023-12-14T03:51:34;5.60;99.90
11961;DHT22;6040;49.358;11.140;2023-12-14T03:54:01;7.20;99.90
11961;DHT22;6040;49.358;11.140;2023-12-14T03:56:28;6.80;99.90
11961;DHT22;6040;49.358;11.140;2023-12-14T03:58:55;5.70;99.90
11961;DHT22;6040;49.358;11.140;2023-12-14T04:01:22;5.70;99.90
11961;DHT22;6040;49.358;11.140;2023-12-14T04:03:49;5.70;99.90
11961;DHT22;6040;49.358;11.140;2023-12-14T04:06:17;7.00;99.90
11961;DHT22;6040;49.358;11.140;2023-12-14T04:08:45;5.60;99.90
11961;DHT22;6040;49.358;11.140;2023-12-14T04:11:11;6.90;99.90
11961;DHT22;6040;49.358;11.140;2023-12-14T04:13:39;7.10;99.90
11961;DHT22;6040;49.358;11.140;2023-12-14T04:16:06;5.70;99.90
11961;DHT22;6040;49.358;11.140;2023-12-14T04:18:33;5.70;99.90
11961;DHT22;6040;49.358;11.140;2023-12-14T04:21:00;6.20;99.90
11961;DHT22;6040;49.358;11.140;2023-12-14T04:23:28;7.30;99.90
11961;DHT22;6040;49.358;11.140;2023-12-14T04:25:55;5.80;99.90
11961;DHT22;6040;49.358;11.140;2023-12-14T04:28:22;5.80;99.90
11961;DHT22;6040;49.358;11.140;2023-12-14T04:30:48;5.70;99.90
11961;DHT22;6040;49.358;11.140;2023-12-14T04:33:15;5.70;99.90
11961;DHT22;6040;49.358;11.140;2023-12-14T04:35:42;5.70;99.90
11961;DHT22;6040;49.358;11.140;2023-12-14T04:38:09;5.70;99.90
11961;DHT22;6040;49.358;11.140;2023-12-14T04:40:37;5.70;99.90
11961;DHT22;6040;49.358;11.140;2023-12-14T04:43:04;5.70;99.90
11961;DHT22;6040;49.358;11.140;2023-12-14T04:45:30;5.70;99.90
11961;DHT22;6040;49.358;11.140;2023-12-14T04:47:57;5.70;99.90
11961;DHT22;6040;49.358;11.140;2023-12-14T04:50:24;5.70;99.90
11961;DHT22;6040;49.358;11.140;2023-12-14T04:52:51;5.70;99.90
11961;DHT22;6040;49.358;11.140;2023-12-14T04:55:17;5.80;99.90
11961;DHT22;6040;49.358;11.140;2023-12-14T04:57:46;5.70;99.90
11961;DHT22;6040;49.358;11.140;2023-12-14T05:00:15;5.80;99.90
11961;DHT22;6040;49.358;11.140;2023-12-14T05:02:46;5.70;99.90
11961;DHT22;6040;49.358;11.140;2023-12-14T05:05:14;6.50;99.90
11961;DHT22;6040;49.358;11.140;2023-12-14T05:07:40;5.70;99.90
11961;DHT22;6040;49.358;11.140;2023-12-14T05:10:08;5.70;99.90
11961;DHT22;6040;49.358;11.140;2023-12-14T05:12:35;5.70;99.90
11961;DHT22;6040;49.358;11.140;2023-12-14T05:15:05;5.70;99.90
11961;DHT22;6040;49.358;11.140;2023-12-14T05:17:31;5.70;99.90
11961;DHT22;6040;49.358;11.140;2023-12-14T05:20:00;5.60;99.90
11961;DHT22;6040;49.358;11.140;2023-12-14T05:22:27;5.70;99.90
11961;DHT22;6040;49.358;11.140;2023-12-14T05:24:54;5.70;99.90
11961;DHT22;6040;49.358;11.140;2023-12-14T05:27:20;5.70;99.90
11961;DHT22;6040;49.358;11.140;2023-12-14T05:29:47;7.30;99.90
11961;DHT22;6040;49.358;11.140;2023-12-14T05:32:15;5.60;99.90
11961;DHT22;6040;49.358;11.140;2023-12-14T05:34:42;5.60;99.90
11961;DHT22;6040;49.358;11.140;2023-12-14T05:37:09;6.00;99.90
11961;DHT22;6040;49.358;11.140;2023-12-14T05:39:36;5.60;99.90
11961;DHT22;6040;49.358;11.140;2023-12-14T05:42:03;7.80;99.90
11961;DHT22;6040;49.358;11.140;2023-12-14T05:44:30;5.60;99.90
11961;DHT22;6040;49.358;11.140;2023-12-14T05:46:56;5.60;99.90
11961;DHT22;6040;49.358;11.140;2023-12-14T05:49:25;5.50;99.90
11961;DHT22;6040;49.358;11.140;2023-12-14T05:51:52;5.60;99.90
11961;DHT22;6040;49.358;11.140;2023-12-14T05:54:18;5.60;99.90
11961;DHT22;6040;49.358;11.140;2023-12-14T05:56:46;6.30;99.90
11961;DHT22;6040;49.358;11.140;2023-12-14T05:59:13;5.60;99.90
11961;DHT22;6040;49.358;11.140;2023-12-14T06:01:39;5.60;99.90
11961;DHT22;6040;49.358;11.140;2023-12-14T06:04:08;5.50;99.90
11961;DHT22;6040;49.358;11.140;2023-12-14T06:06:37;5.50;99.90
11961;DHT22;6040;49.358;11.140;2023-12-14T06:09:04;5.60;99.90
11961;DHT22;6040;49.358;11.140;2023-12-14T06:11:32;6.60;99.90
11961;DHT22;6040;49.358;11.140;2023-12-14T06:13:59;5.60;99.90
11961;DHT22;6040;49.358;11.140;2023-12-14T06:16:26;5.50;99.90
11961;DHT22;6040;49.358;11.140;2023-12-14T06:18:53;5.60;99.90
11961;DHT22;6040;49.358;11.140;2023-12-14T06:21:19;5.50;99.90
11961;DHT22;6040;49.358;11.140;2023-12-14T06:23:48;5.50;99.90
11961;DHT22;6040;49.358;11.140;2023-12-14T06:26:14;5.50;99.90
11961;DHT22;6040;49.358;11.140;2023-12-14T06:28:41;5.50;99.90
11961;DHT22;6040;49.358;11.140;2023-12-14T06:31:12;4.50;99.90
11961;DHT22;6040;49.358;11.140;2023-12-14T06:33:39;5.50;99.90
11961;DHT22;6040;49.358;11.140;2023-12-14T06:36:08;6.60;99.90
11961;DHT22;6040;49.358;11.140;2023-12-14T06:38:36;5.50;99.90
11961;DHT22;6040;49.358;11.140;2023-12-14T06:41:05;5.50;99.90
11961;DHT22;6040;49.358;11.140;2023-12-14T06:43:32;6.70;99.90
11961;DHT22;6040;49.358;11.140;2023-12-14T06:45:59;5.40;99.90
11961;DHT22;6040;49.358;11.140;2023-12-14T06:48:26;7.20;99.90
11961;DHT22;6040;49.358;11.140;2023-12-14T06:50:53;5.40;99.90
11961;DHT22;6040;49.358;11.140;2023-12-14T06:53:20;5.40;99.90
11961;DHT22;6040;49.358;11.140;2023-12-14T06:55:47;5.40;99.90
11961;DHT22;6040;49.358;11.140;2023-12-14T06:58:15;5.40;99.90
11961;DHT22;6040;49.358;11.140;2023-12-14T07:00:42;7.10;99.90
11961;DHT22;6040;49.358;11.140;2023-12-14T07:03:09;5.30;99.90
11961;DHT22;6040;49.358;11.140;2023-12-14T07:05:36;5.40;99.90
11961;DHT22;6040;49.358;11.140;2023-12-14T07:08:03;5.40;99.90
11961;DHT22;6040;49.358;11.140;2023-12-14T07:10:30;5.40;99.90
11961;DHT22;6040;49.358;11.140;2023-12-14T07:12:57;5.80;99.90
11961;DHT22;6040;49.358;11.140;2023-12-14T07:15:25;5.40;99.90
11961;DHT22;6040;49.358;11.140;2023-12-14T07:17:52;5.90;99.90
11961;DHT22;6040;49.358;11.140;2023-12-14T07:20:19;5.40;99.90
11961;DHT22;6040;49.358;11.140;2023-12-14T07:22:46;5.50;99.90
11961;DHT22;6040;49.358;11.140;2023-12-14T07:25:13;5.50;99.90
11961;DHT22;6040;49.358;11.140;2023-12-14T07:27:41;5.70;99.90
11961;DHT22;6040;49.358;11.140;2023-12-14T07:30:09;7.90;99.90
11961;DHT22;6040;49.358;11.140;2023-12-14T07:32:37;5.50;99.90
11961;DHT22;6040;49.358;11.140;2023-12-14T07:35:05;5.50;99.90
11961;DHT22;6040;49.358;11.140;2023-12-14T07:37:32;5.50;99.90
11961;DHT22;6040;49.358;11.140;2023-12-14T07:39:59;5.50;99.90
11961;DHT22;6040;49.358;11.140;2023-12-14T07:42:26;5.50;99.90
11961;DHT22;6040;49.358;11.140;2023-12-14T07:44:52;5.40;99.90
11961;DHT22;6040;49.358;11.140;2023-12-14T07:47:20;5.50;99.90
11961;DHT22;6040;49.358;11.140;2023-12-14T07:49:48;5.50;99.90
11961;DHT22;6040;49.358;11.140;2023-12-14T07:52:15;5.40;99.90
11961;DHT22;6040;49.358;11.140;2023-12-14T07:54:41;5.50;99.90
11961;DHT22;6040;49.358;11.140;2023-12-14T07:57:08;5.50;99.90
11961;DHT22;6040;49.358;11.140;2023-12-14T07:59:35;5.50;99.90
11961;DHT22;6040;49.358;11.140;2023-12-14T08:02:02;7.50;99.90
11961;DHT22;6040;49.358;11.140;2023-12-14T08:04:29;5.50;99.90
11961;DHT22;6040;49.358;11.140;2023-12-14T08:06:57;7.30;99.90
11961;DHT22;6040;49.358;11.140;2023-12-14T08:09:26;5.60;99.90
11961;DHT22;6040;49.358;11.140;2023-12-14T08:11:52;6.80;99.90
11961;DHT22;6040;49.358;11.140;2023-12-14T08:14:19;5.60;99.90
11961;DHT22;6040;49.358;11.140;2023-12-14T08:16:46;5.60;99.90
11961;DHT22;6040;49.358;11.140;2023-12-14T08:19:13;5.50;99.90
11961;DHT22;6040;49.358;11.140;2023-12-14T08:21:39;6.70;99.90
11961;DHT22;6040;49.358;11.140;2023-12-14T08:24:08;7.70;99.90
11961;DHT22;6040;49.358;11.140;2023-12-14T08:26:35;5.60;99.90
11961;DHT22;6040;49.358;11.140;2023-12-14T08:29:01;5.60;99.90
11961;DHT22;6040;49.358;11.140;2023-12-14T08:31:28;6.40;99.90
11961;DHT22;6040;49.358;11.140;2023-12-14T08:33:55;5.70;99.90
11961;DHT22;6040;49.358;11.140;2023-12-14T08:36:22;5.80;99.90
11961;DHT22;6040;49.358;11.140;2023-12-14T08:38:48;7.40;99.90
11961;DHT22;6040;49.358;11.140;2023-12-14T08:41:17;6.30;99.90
11961;DHT22;6040;49.358;11.140;2023-12-14T08:43:44;5.90;99.90
11961;DHT22;6040;49.358;11.140;2023-12-14T08:46:11;6.00;99.90
11961;DHT22;6040;49.358;11.140;2023-12-14T08:48:38;7.60;99.90
11961;DHT22;6040;49.358;11.140;2023-12-14T08:51:05;6.00;99.90
11961;DHT22;6040;49.358;11.140;2023-12-14T08:53:32;6.00;99.90
11961;DHT22;6040;49.358;11.140;2023-12-14T08:55:58;6.10;99.90
11961;DHT22;6040;49.358;11.140;2023-12-14T08:58:27;6.10;99.90
11961;DHT22;6040;49.358;11.140;2023-12-14T09:00:53;6.10;99.90
11961;DHT22;6040;49.358;11.140;2023-12-14T09:03:20;6.50;99.90
11961;DHT22;6040;49.358;11.140;2023-12-14T09:05:47;6.20;99.90
11961;DHT22;6040;49.358;11.140;2023-12-14T09:08:13;6.20;99.90
11961;DHT22;6040;49.358;11.140;2023-12-14T09:10:40;6.30;99.90
11961;DHT22;6040;49.358;11.140;2023-12-14T09:13:07;6.20;99.90
11961;DHT22;6040;49.358;11.140;2023-12-14T09:15:35;6.20;99.90
11961;DHT22;6040;49.358;11.140;2023-12-14T09:18:02;6.30;99.90
11961;DHT22;6040;49.358;11.140;2023-12-14T09:20:29;6.30;99.90
11961;DHT22;6040;49.358;11.140;2023-12-14T09:22:56;6.40;99.90
11961;DHT22;6040;49.358;11.140;2023-12-14T09:25:23;6.30;99.90
11961;DHT22;6040;49.358;11.140;2023-12-14T09:27:50;6.30;99.90
11961;DHT22;6040;49.358;11.140;2023-12-14T09:30:17;6.30;99.90
11961;DHT22;6040;49.358;11.140;2023-12-14T09:32:45;6.30;99.90
11961;DHT22;6040;49.358;11.140;2023-12-14T09:35:12;8.20;99.90
11961;DHT22;6040;49.358;11.140;2023-12-14T09:37:38;6.40;99.90
11961;DHT22;6040;49.358;11.140;2023-12-14T09:40:07;6.40;99.90
11961;DHT22;6040;49.358;11.140;2023-12-14T09:42:37;6.30;99.90
11961;DHT22;6040;49.358;11.140;2023-12-14T09:45:07;8.70;99.90
11961;DHT22;6040;49.358;11.140;2023-12-14T09:47:34;6.30;99.90
11961;DHT22;6040;49.358;11.140;2023-12-14T09:50:03;7.30;99.90
11961;DHT22;6040;49.358;11.140;2023-12-14T09:52:30;6.40;99.90
11961;DHT22;6040;49.358;11.140;2023-12-14T09:54:58;6.40;99.90
11961;DHT22;6040;49.358;11.140;2023-12-14T09:57:25;8.40;99.90
11961;DHT22;6040;49.358;11.140;2023-12-14T09:59:52;6.40;99.90
11961;DHT22;6040;49.358;11.140;2023-12-14T10:02:19;6.40;99.90
11961;DHT22;6040;49.358;11.140;2023-12-14T10:04:46;7.80;99.90
11961;DHT22;6040;49.358;11.140;2023-12-14T10:07:15;7.10;99.90
11961;DHT22;6040;49.358;11.140;2023-12-14T10:09:42;6.80;99.90
11961;DHT22;6040;49.358;11.140;2023-12-14T10:12:10;6.30;99.90
11961;DHT22;6040;49.358;11.140;2023-12-14T10:14:38;6.30;99.90
11961;DHT22;6040;49.358;11.140;2023-12-14T10:17:16;6.30;99.90
11961;DHT22;6040;49.358;11.140;2023-12-14T10:19:44;6.30;99.90
11961;DHT22;6040;49.358;11.140;2023-12-14T10:22:14;6.40;99.90
11961;DHT22;6040;49.358;11.140;2023-12-14T10:24:46;6.40;99.90
11961;DHT22;6040;49.358;11.140;2023-12-14T10:27:14;6.40;99.90
11961;DHT22;6040;49.358;11.140;2023-12-14T10:29:41;6.40;99.90
11961;DHT22;6040;49.358;11.140;2023-12-14T10:32:10;8.00;99.90
11961;DHT22;6040;49.358;11.140;2023-12-14T10:34:37;8.00;99.90
11961;DHT22;6040;49.358;11.140;2023-12-14T10:37:05;6.70;99.90
11961;DHT22;6040;49.358;11.140;2023-12-14T10:39:34;6.60;99.90
11961;DHT22;6040;49.358;11.140;2023-12-14T10:42:03;6.80;99.90
11961;DHT22;6040;49.358;11.140;2023-12-14T10:44:30;6.80;99.90
11961;DHT22;6040;49.358;11.140;2023-12-14T10:47:00;6.90;99.90
11961;DHT22;6040;49.358;11.140;2023-12-14T10:49:29;6.80;99.90
11961;DHT22;6040;49.358;11.140;2023-12-14T10:51:58;8.90;99.90
11961;DHT22;6040;49.358;11.140;2023-12-14T10:54:26;8.30;99.90
11961;DHT22;6040;49.358;11.140;2023-12-14T10:56:56;6.90;99.90
11961;DHT22;6040;49.358;11.140;2023-12-14T10:59:23;6.90;99.90
11961;DHT22;6040;49.358;11.140;2023-12-14T11:01:52;6.90;99.90
11961;DHT22;6040;49.358;11.140;2023-12-14T11:04:21;7.00;99.90
11961;DHT22;6040;49.358;11.140;2023-12-14T11:06:48;8.40;99.90
11961;DHT22;6040;49.358;11.140;2023-12-14T11:09:18;7.00;99.90
11961;DHT22;6040;49.358;11.140;2023-12-14T11:11:56;7.10;99.90
11961;DHT22;6040;49.358;11.140;2023-12-14T11:14:25;8.30;99.90
11961;DHT22;6040;49.358;11.140;2023-12-14T11:16:54;7.90;99.90
11961;DHT22;6040;49.358;11.140;2023-12-14T11:19:26;7.20;99.90
11961;DHT22;6040;49.358;11.140;2023-12-14T11:22:12;8.90;99.90
11961;DHT22;6040;49.358;11.140;2023-12-14T11:24:51;7.30;99.90
11961;DHT22;6040;49.358;11.140;2023-12-14T11:27:26;7.30;99.90
11961;DHT22;6040;49.358;11.140;2023-12-14T11:29:53;7.30;99.90
11961;DHT22;6040;49.358;11.140;2023-12-14T11:32:20;7.30;99.90
11961;DHT22;6040;49.358;11.140;2023-12-14T11:34:47;7.30;99.90
11961;DHT22;6040;49.358;11.140;2023-12-14T11:37:14;7.40;99.90
11961;DHT22;6040;49.358;11.140;2023-12-14T11:39:41;7.40;99.90
11961;DHT22;6040;49.358;11.140;2023-12-14T11:42:09;7.50;99.90
11961;DHT22;6040;49.358;11.140;2023-12-14T11:44:38;7.60;99.90
11961;DHT22;6040;49.358;11.140;2023-12-14T11:47:07;7.70;99.90
11961;DHT22;6040;49.358;11.140;2023-12-14T11:49:34;7.80;99.90
11961;DHT22;6040;49.358;11.140;2023-12-14T11:52:02;8.50;99.90
11961;DHT22;6040;49.358;11.140;2023-12-14T11:54:30;7.70;99.90
11961;DHT22;6040;49.358;11.140;2023-12-14T11:56:57;9.40;99.90
11961;DHT22;6040;49.358;11.140;2023-12-14T11:59:26;8.50;99.90
11961;DHT22;6040;49.358;11.140;2023-12-14T12:01:56;7.90;99.90
11961;DHT22;6040;49.358;11.140;2023-12-14T12:04:23;7.90;99.90
11961;DHT22;6040;49.358;11.140;2023-12-14T12:06:50;8.00;99.90
11961;DHT22;6040;49.358;11.140;2023-12-14T12:09:35;8.50;99.90
11961;DHT22;6040;49.358;11.140;2023-12-14T12:12:04;8.00;99.90
11961;DHT22;6040;49.358;11.140;2023-12-14T12:14:31;8.00;99.90
11961;DHT22;6040;49.358;11.140;2023-12-14T12:17:00;8.00;99.90
11961;DHT22;6040;49.358;11.140;2023-12-14T12:19:26;8.10;99.90
11961;DHT22;6040;49.358;11.140;2023-12-14T12:21:53;8.00;99.90
11961;DHT22;6040;49.358;11.140;2023-12-14T12:24:20;8.00;99.90
11961;DHT22;6040;49.358;11.140;2023-12-14T12:26:47;8.00;99.90
11961;DHT22;6040;49.358;11.140;2023-12-14T12:29:14;8.50;99.90
11961;DHT22;6040;49.358;11.140;2023-12-14T12:31:40;8.10;99.90
11961;DHT22;6040;49.358;11.140;2023-12-14T12:34:09;8.10;99.90
11961;DHT22;6040;49.358;11.140;2023-12-14T12:36:36;8.00;99.90
11961;DHT22;6040;49.358;11.140;2023-12-14T12:39:03;8.00;99.90
11961;DHT22;6040;49.358;11.140;2023-12-14T12:41:31;8.10;99.90
11961;DHT22;6040;49.358;11.140;2023-12-14T12:43:58;8.00;99.90
11961;DHT22;6040;49.358;11.140;2023-12-14T12:46:31;8.00;99.90
11961;DHT22;6040;49.358;11.140;2023-12-14T12:48:58;8.00;99.90
11961;DHT22;6040;49.358;11.140;2023-12-14T12:51:26;8.00;99.90
11961;DHT22;6040;49.358;11.140;2023-12-14T12:53:53;7.90;99.90
11961;DHT22;6040;49.358;11.140;2023-12-14T12:56:20;7.90;99.90
11961;DHT22;6040;49.358;11.140;2023-12-14T12:58:47;7.80;99.90
11961;DHT22;6040;49.358;11.140;2023-12-14T13:01:15;7.80;99.90
11961;DHT22;6040;49.358;11.140;2023-12-14T13:03:42;7.80;99.90
11961;DHT22;6040;49.358;11.140;2023-12-14T13:06:09;7.70;99.90
11961;DHT22;6040;49.358;11.140;2023-12-14T13:08:37;7.90;99.90
11961;DHT22;6040;49.358;11.140;2023-12-14T13:11:04;8.80;99.90
11961;DHT22;6040;49.358;11.140;2023-12-14T13:13:31;7.60;99.90
11961;DHT22;6040;49.358;11.140;2023-12-14T13:15:57;7.50;99.90
11961;DHT22;6040;49.358;11.140;2023-12-14T13:18:24;7.50;99.90
11961;DHT22;6040;49.358;11.140;2023-12-14T13:20:51;8.30;99.90
11961;DHT22;6040;49.358;11.140;2023-12-14T13:23:18;7.40;99.90
11961;DHT22;6040;49.358;11.140;2023-12-14T13:25:46;7.40;99.90
11961;DHT22;6040;49.358;11.140;2023-12-14T13:28:13;7.50;99.90
11961;DHT22;6040;49.358;11.140;2023-12-14T13:30:40;8.60;99.90
11961;DHT22;6040;49.358;11.140;2023-12-14T13:33:07;7.40;99.90
11961;DHT22;6040;49.358;11.140;2023-12-14T13:35:35;7.40;99.90
11961;DHT22;6040;49.358;11.140;2023-12-14T13:38:01;7.30;99.90
11961;DHT22;6040;49.358;11.140;2023-12-14T13:40:28;7.40;99.90
11961;DHT22;6040;49.358;11.140;2023-12-14T13:42:56;7.40;99.90
11961;DHT22;6040;49.358;11.140;2023-12-14T13:45:25;7.40;99.90
11961;DHT22;6040;49.358;11.140;2023-12-14T13:47:53;8.90;99.90
11961;DHT22;6040;49.358;11.140;2023-12-14T13:50:20;7.30;99.90
11961;DHT22;6040;49.358;11.140;2023-12-14T13:52:47;7.30;99.90
11961;DHT22;6040;49.358;11.140;2023-12-14T13:55:14;7.30;99.90
11961;DHT22;6040;49.358;11.140;2023-12-14T13:57:40;7.30;99.90
11961;DHT22;6040;49.358;11.140;2023-12-14T14:00:09;7.20;99.90
11961;DHT22;6040;49.358;11.140;2023-12-14T14:02:37;7.20;99.90
11961;DHT22;6040;49.358;11.140;2023-12-14T14:05:04;7.10;99.90
11961;DHT22;6040;49.358;11.140;2023-12-14T14:07:31;7.10;99.90
11961;DHT22;6040;49.358;11.140;2023-12-14T14:09:58;7.10;99.90
11961;DHT22;6040;49.358;11.140;2023-12-14T14:12:25;7.10;99.90
11961;DHT22;6040;49.358;11.140;2023-12-14T14:14:52;7.00;99.90
11961;DHT22;6040;49.358;11.140;2023-12-14T14:17:20;7.60;99.90
11961;DHT22;6040;49.358;11.140;2023-12-14T14:19:47;6.90;99.90
11961;DHT22;6040;49.358;11.140;2023-12-14T14:22:14;6.90;99.90
11961;DHT22;6040;49.358;11.140;2023-12-14T14:24:41;6.90;99.90
11961;DHT22;6040;49.358;11.140;2023-12-14T14:27:08;8.70;99.90
11961;DHT22;6040;49.358;11.140;2023-12-14T14:29:34;6.80;99.90
11961;DHT22;6040;49.358;11.140;2023-12-14T14:32:01;8.90;99.90
11961;DHT22;6040;49.358;11.140;2023-12-14T14:34:29;8.30;99.90
11961;DHT22;6040;49.358;11.140;2023-12-14T14:36:56;6.70;99.90
11961;DHT22;6040;49.358;11.140;2023-12-14T14:39:23;6.70;99.90
11961;DHT22;6040;49.358;11.140;2023-12-14T14:41:50;6.70;99.90
11961;DHT22;6040;49.358;11.140;2023-12-14T14:47:39;6.60;99.90
11961;DHT22;6040;49.358;11.140;2023-12-14T14:53:29;6.60;99.90
11961;DHT22;6040;49.358;11.140;2023-12-14T14:59:18;6.50;99.90
11961;DHT22;6040;49.358;11.140;2023-12-14T15:05:07;6.40;99.90
11961;DHT22;6040;49.358;11.140;2023-12-14T15:07:34;6.40;99.90
11961;DHT22;6040;49.358;11.140;2023-12-14T15:13:24;6.30;99.90
11961;DHT22;6040;49.358;11.140;2023-12-14T15:15:51;6.30;99.90
11961;DHT22;6040;49.358;11.140;2023-12-14T15:18:18;6.30;99.90
11961;DHT22;6040;49.358;11.140;2023-12-14T15:20:45;6.30;99.90
11961;DHT22;6040;49.358;11.140;2023-12-14T15:23:14;6.30;99.90
11961;DHT22;6040;49.358;11.140;2023-12-14T15:25:41;8.50;99.90
11961;DHT22;6040;49.358;11.140;2023-12-14T15:28:08;6.70;99.90
11961;DHT22;6040;49.358;11.140;2023-12-14T15:30:36;6.30;99.90
11961;DHT22;6040;49.358;11.140;2023-12-14T15:33:03;6.30;99.90
11961;DHT22;6040;49.358;11.140;2023-12-14T15:35:30;6.40;99.90
11961;DHT22;6040;49.358;11.140;2023-12-14T15:37:56;6.30;99.90
11961;DHT22;6040;49.358;11.140;2023-12-14T15:40:23;6.30;99.90
11961;DHT22;6040;49.358;11.140;2023-12-14T15:42:50;6.30;99.90
11961;DHT22;6040;49.358;11.140;2023-12-14T15:45:17;6.30;99.90
11961;DHT22;6040;49.358;11.140;2023-12-14T15:47:47;6.30;99.90
11961;DHT22;6040;49.358;11.140;2023-12-14T15:50:13;6.30;99.90
11961;DHT22;6040;49.358;11.140;2023-12-14T15:52:41;6.30;99.90
11961;DHT22;6040;49.358;11.140;2023-12-14T15:55:08;7.50;99.90
11961;DHT22;6040;49.358;11.140;2023-12-14T15:57:35;6.30;99.90
11961;DHT22;6040;49.358;11.140;2023-12-14T16:00:02;6.30;99.90
11961;DHT22;6040;49.358;11.140;2023-12-14T16:02:29;6.30;99.90